Time;durP1;ratioP1;P1;durP2;ratioP2;P2;SDS_P1;SDS_P2;PMS_P1;PMS_P2;Temp;Humidity;BMP_temperature;BMP_pressure;BME280_temperature;BME280_humidity;BME280_pressure;Samples;Min_cycle;Max_cycle;Signal;HPM_P1;HPM_P2
2021/10/15 00:01:57;;;;;;;;;1.00;1.00;;;;;12.98;58.47;101673.56;5123500;27;45301;-76
2021/10/15 00:04:23;;;;;;;;;0.25;0.25;;;;;12.93;58.60;101655.22;5104722;27;45318;-76
2021/10/15 00:06:48;;;;;;;;;1.50;1.00;;;;;12.92;58.46;101644.75;5123551;27;45221;-76
2021/10/15 00:09:13;;;;;;;;;0.50;0.00;;;;;13.20;58.36;101693.91;5122851;27;45230;-76
2021/10/15 00:11:39;;;;;;;;;3.00;2.00;;;;;12.78;58.09;101627.13;5120717;27;45152;-76
2021/10/15 00:14:04;;;;;;;;;0.75;0.75;;;;;12.74;58.37;101648.84;5125944;27;45679;-76
2021/10/15 00:16:30;;;;;;;;;1.75;1.75;;;;;12.31;58.35;101602.09;5107945;27;45583;-76
2021/10/15 00:18:56;;;;;;;;;2.00;2.00;;;;;12.74;58.60;101695.03;5107803;27;48026;-76
2021/10/15 00:21:22;;;;;;;;;2.00;1.00;;;;;12.56;58.92;101690.38;5108049;27;45711;-76
2021/10/15 00:23:50;;;;;;;;;2.00;2.00;;;;;12.39;59.15;101664.88;5107809;27;45489;-77
2021/10/15 00:26:16;;;;;;;;;1.50;1.00;;;;;12.22;59.45;101639.38;5126923;27;45208;-76
2021/10/15 00:28:41;;;;;;;;;1.50;1.50;;;;;12.49;59.42;101694.63;5107548;27;46072;-76
2021/10/15 00:31:07;;;;;;;;;1.25;1.00;;;;;12.22;59.63;101655.03;5108055;27;45255;-76
2021/10/15 00:33:33;;;;;;;;;0.25;0.25;;;;;12.08;59.79;101633.94;5107811;27;45263;-77
2021/10/15 00:35:58;;;;;;;;;1.25;0.00;;;;;11.94;59.59;101610.16;5108201;27;45255;-76
2021/10/15 00:38:24;;;;;;;;;1.50;1.50;;;;;12.04;60.14;101648.63;5107611;27;47052;-78
2021/10/15 00:40:49;;;;;;;;;3.75;2.50;;;;;12.13;59.98;101666.19;5107601;27;45481;-76
2021/10/15 00:43:15;;;;;;;;;5.00;2.00;;;;;12.16;60.14;101671.47;5107944;27;45438;-76
2021/10/15 00:45:41;;;;;;;;;2.75;2.75;;;;;11.90;60.20;101630.13;5102011;27;45713;-75
2021/10/15 00:48:06;;;;;;;;;0.25;0.00;;;;;11.97;60.16;101645.91;5086843;27;47046;-77
2021/10/15 00:50:32;;;;;;;;;2.25;1.00;;;;;12.06;60.36;101666.91;5070568;28;45477;-76
2021/10/15 00:52:58;;;;;;;;;2.25;1.75;;;;;11.72;60.20;101621.97;5066992;28;45456;-76
2021/10/15 00:55:23;;;;;;;;;2.75;2.50;;;;;11.71;60.18;101613.28;5066928;28;45318;-76
2021/10/15 00:57:52;;;;;;;;;4.00;3.00;;;;;12.08;60.30;101670.47;5066822;28;46344;-76
2021/10/15 01:00:18;;;;;;;;;3.00;3.00;;;;;11.83;60.01;101624.78;5066677;28;45276;-74
2021/10/15 01:02:43;;;;;;;;;1.25;1.25;;;;;11.65;60.04;101614.03;5066708;28;45177;-75
2021/10/15 01:05:10;;;;;;;;;1.75;1.75;;;;;11.85;60.05;101631.75;5066537;28;45557;-75
2021/10/15 01:07:39;;;;;;;;;1.50;1.50;;;;;12.02;59.95;101660.78;5066440;28;47758;-75
2021/10/15 01:10:18;;;;;;;;;0.75;0.75;;;;;12.06;60.20;101669.53;5066233;28;45384;-74
2021/10/15 01:13:12;;;;;;;;;2.75;1.75;;;;;11.88;60.23;101641.38;5092908;27;45508;-75
2021/10/15 01:15:38;;;;;;;;;2.25;2.00;;;;;11.67;60.12;101603.59;5086404;27;45647;-75
2021/10/15 01:18:29;;;;;;;;;1.50;1.50;;;;;11.73;60.32;101613.31;5103369;27;47163;-75
2021/10/15 01:21:15;;;;;;;;;1.75;1.75;;;;;10.55;60.10;101408.72;5086542;27;45346;-75
2021/10/15 01:23:41;;;;;;;;;3.75;3.75;;;;;11.02;60.01;101502.53;5086068;27;45298;-75
2021/10/15 01:26:07;;;;;;;;;2.00;2.00;;;;;11.87;60.07;101631.78;5103586;27;45201;-75
2021/10/15 01:28:39;;;;;;;;;5.25;2.50;;;;;11.80;60.24;101623.00;5086299;27;46998;-75
2021/10/15 01:31:21;;;;;;;;;1.00;1.00;;;;;11.41;60.43;101541.44;5103265;27;45512;-75
2021/10/15 01:34:06;;;;;;;;;1.25;1.25;;;;;10.57;60.31;101400.09;5086462;27;45349;-74
2021/10/15 01:36:48;;;;;;;;;2.75;1.00;;;;;11.25;60.42;101514.22;5104855;27;45442;-76
2021/10/15 01:39:14;;;;;;;;;4.25;4.25;;;;;11.15;60.20;101510.59;5103062;27;48320;-77
2021/10/15 01:41:39;;;;;;;;;6.25;2.75;;;;;11.71;60.39;101615.88;5086345;27;45222;-75
2021/10/15 01:44:24;;;;;;;;;;;;;;;;;;;;;
2021/10/15 01:47:12;;;;;;;;;2.00;1.50;;;;;11.13;60.32;101536.63;5103582;27;62546;-75
2021/10/15 01:49:41;;;;;;;;;1.75;1.75;;;;;11.68;60.49;101617.53;5080794;27;45473;-75
2021/10/15 01:52:06;;;;;;;;;4.25;2.50;;;;;11.50;60.46;101592.88;5104643;27;45253;-75
2021/10/15 01:54:32;;;;;;;;;4.50;3.00;;;;;11.71;60.79;101618.50;5120128;27;45337;-75
2021/10/15 01:56:58;;;;;;;;;1.00;1.00;;;;;11.33;60.65;101563.91;5103470;27;45485;-75
2021/10/15 01:59:23;;;;;;;;;2.75;0.00;;;;;11.66;60.62;101623.63;5120070;27;45594;-75
2021/10/15 02:01:49;;;;;;;;;2.00;1.50;;;;;11.47;60.79;101583.28;5102905;27;45281;-75
2021/10/15 02:04:14;;;;;;;;;1.75;0.75;;;;;11.09;60.80;101518.28;5120040;27;45238;-75
2021/10/15 02:06:40;;;;;;;;;1.75;1.75;;;;;11.71;60.62;101615.00;5104632;27;45186;-75
2021/10/15 02:09:05;;;;;;;;;2.50;1.00;;;;;11.61;60.63;101607.00;5103943;27;45506;-75
2021/10/15 02:11:31;;;;;;;;;0.75;0.75;;;;;11.68;60.82;101615.81;5100907;27;45312;-75
2021/10/15 02:13:57;;;;;;;;;2.75;1.75;;;;;11.15;60.67;101545.31;5098267;27;45694;-75
2021/10/15 02:16:22;;;;;;;;;2.75;2.25;;;;;11.21;60.64;101543.69;5079669;28;45430;-75
2021/10/15 02:18:48;;;;;;;;;1.25;1.25;;;;;11.50;60.74;101598.09;5096405;27;45943;-75
2021/10/15 02:21:13;;;;;;;;;2.00;2.00;;;;;11.21;60.46;101546.31;5096743;27;45554;-75
2021/10/15 02:23:38;;;;;;;;;1.25;1.00;;;;;11.63;60.83;101604.41;5081143;27;45404;-75
2021/10/15 02:26:04;;;;;;;;;0.50;0.50;;;;;11.35;60.65;101565.69;5080186;28;45636;-76
2021/10/15 02:28:29;;;;;;;;;6.00;3.00;;;;;11.49;60.89;101591.13;5081053;27;46732;-76
2021/10/15 02:30:54;;;;;;;;;0.75;0.75;;;;;11.36;61.15;101567.44;5081866;28;45309;-76
2021/10/15 02:33:20;;;;;;;;;1.50;0.75;;;;;11.26;60.92;101535.13;5099346;27;45320;-76
2021/10/15 02:35:45;;;;;;;;;1.25;1.25;;;;;11.44;60.90;101558.88;5083211;27;45433;-76
2021/10/15 02:38:11;;;;;;;;;1.25;1.25;;;;;11.45;60.87;101563.25;5083053;27;45215;-76
2021/10/15 02:40:36;;;;;;;;;0.75;0.75;;;;;11.51;60.74;101577.28;5083187;27;45299;-75
2021/10/15 02:43:02;;;;;;;;;1.25;1.00;;;;;11.47;60.66;101565.03;5082207;28;45218;-76
2021/10/15 02:45:27;;;;;;;;;0.50;0.50;;;;;11.56;60.93;101579.97;5083835;27;45251;-75
2021/10/15 02:47:53;;;;;;;;;2.00;2.00;;;;;11.53;61.16;101572.09;5098444;27;47449;-76
2021/10/15 02:50:18;;;;;;;;;1.00;1.00;;;;;11.48;61.04;101563.28;5081915;27;46175;-76
2021/10/15 02:52:43;;;;;;;;;1.00;1.00;;;;;11.54;61.14;101579.03;5083432;27;45258;-76
2021/10/15 02:58:01;;;;;;;;;1.75;1.75;;;;;10.83;60.87;101458.72;5083600;28;45239;-75
2021/10/15 03:00:27;;;;;;;;;0.75;0.75;;;;;11.01;60.73;101497.28;5083281;27;45264;-76
2021/10/15 03:02:54;;;;;;;;;1.75;1.00;;;;;11.49;60.92;101580.72;5098985;27;45301;-75
2021/10/15 03:05:19;;;;;;;;;2.00;2.00;;;;;11.49;60.93;101583.31;5082199;27;45510;-76
2021/10/15 03:07:45;;;;;;;;;4.50;3.00;;;;;11.38;60.62;101570.06;5098539;27;48025;-76
2021/10/15 03:10:10;;;;;;;;;3.00;1.50;;;;;11.33;61.36;101579.53;5098582;27;45732;-76
2021/10/15 03:12:36;;;;;;;;;3.75;2.00;;;;;11.46;61.33;101609.31;5082904;27;45361;-76
2021/10/15 03:15:02;;;;;;;;;4.50;1.75;;;;;11.44;61.25;101600.59;5065142;28;45449;-76
2021/10/15 03:17:27;;;;;;;;;1.25;1.25;;;;;11.05;61.81;101547.75;5064422;28;47539;-76
2021/10/15 03:19:53;;;;;;;;;4.25;2.25;;;;;11.26;61.48;101602.00;5082443;28;45250;-76
2021/10/15 03:22:18;;;;;;;;;4.00;1.25;;;;;11.04;62.11;101583.31;5082787;28;45506;-76
2021/10/15 03:24:43;;;;;;;;;2.00;2.00;;;;;11.00;62.43;101573.69;5064297;28;45344;-76
2021/10/15 03:27:09;;;;;;;;;2.75;2.50;;;;;10.74;62.49;101534.94;5081438;28;47100;-76
2021/10/15 03:29:34;;;;;;;;;1.50;0.25;;;;;10.95;62.48;101570.09;5082599;28;45362;-76
2021/10/15 03:32:00;;;;;;;;;1.50;1.50;;;;;10.98;63.25;101573.66;5064403;28;45372;-76
2021/10/15 03:34:25;;;;;;;;;3.25;2.50;;;;;11.06;62.55;101567.72;5064022;28;45237;-76
2021/10/15 03:36:50;;;;;;;;;4.25;3.00;;;;;11.19;62.59;101590.56;5082084;28;45276;-76
2021/10/15 03:39:16;;;;;;;;;2.50;2.50;;;;;11.08;62.66;101577.31;5063646;28;45324;-76
2021/10/15 03:41:41;;;;;;;;;1.50;1.50;;;;;11.00;62.71;101561.53;5082614;28;45150;-76
2021/10/15 03:44:06;;;;;;;;;2.50;1.25;;;;;11.02;62.74;101562.44;5064303;28;45511;-76
2021/10/15 03:46:34;;;;;;;;;2.25;2.25;;;;;11.11;62.57;101564.34;5080557;28;47206;-76
2021/10/15 03:49:00;;;;;;;;;3.25;0.50;;;;;11.15;62.68;101566.16;5066508;27;45338;-75
2021/10/15 03:54:30;;;;;;;;;1.00;1.00;;;;;10.45;62.58;101418.06;5082177;27;45257;-74
2021/10/15 03:56:58;;;;;;;;;0.50;0.50;;;;;11.06;62.69;101515.63;5122143;27;47445;-75
2021/10/15 03:59:24;;;;;;;;;2.25;2.25;;;;;10.68;62.50;101454.09;5087816;27;45379;-75
2021/10/15 04:01:49;;;;;;;;;1.00;1.00;;;;;10.65;62.69;101447.09;5106266;27;45571;-75
2021/10/15 04:04:14;;;;;;;;;2.75;1.25;;;;;11.50;62.27;101588.56;5106193;27;45345;-75
2021/10/15 04:06:40;;;;;;;;;2.75;2.25;;;;;11.10;62.32;101518.31;5104127;27;47037;-75
2021/10/15 04:09:06;;;;;;;;;2.00;2.00;;;;;11.46;62.35;101583.25;5105927;27;45351;-75
2021/10/15 04:11:32;;;;;;;;;0.25;0.25;;;;;11.41;62.27;101564.91;5104397;27;45331;-74
2021/10/15 04:13:58;;;;;;;;;1.00;0.50;;;;;11.43;62.39;101557.13;5105441;27;45499;-75
2021/10/15 04:16:24;;;;;;;;;2.75;2.75;;;;;11.13;62.29;101499.25;5105818;27;45287;-76
2021/10/15 04:18:50;;;;;;;;;2.50;1.25;;;;;11.30;62.02;101532.56;5103911;27;45238;-77
2021/10/15 04:21:15;;;;;;;;;2.00;0.75;;;;;11.14;61.97;101499.28;5104573;27;45436;-74
2021/10/15 04:23:44;;;;;;;;;2.25;2.00;;;;;11.49;61.85;101559.84;5104655;27;45341;-75
2021/10/15 04:26:12;;;;;;;;;1.75;1.25;;;;;11.47;61.62;101566.75;5104289;27;47122;-75
2021/10/15 04:28:37;;;;;;;;;2.00;0.50;;;;;11.21;62.33;101528.91;5104024;27;45798;-74
2021/10/15 04:31:03;;;;;;;;;0.00;0.00;;;;;11.27;62.47;101523.81;5104948;27;45493;-75
2021/10/15 04:33:28;;;;;;;;;0.75;0.75;;;;;11.43;62.48;101544.97;5104748;27;45492;-74
2021/10/15 04:35:54;;;;;;;;;0.75;0.75;;;;;11.40;61.95;101535.34;5104076;27;48596;-76
2021/10/15 04:38:22;;;;;;;;;2.00;1.75;;;;;11.40;61.41;101524.91;5103216;27;46218;-75
2021/10/15 04:40:48;;;;;;;;;1.50;0.25;;;;;11.53;62.14;101544.28;5103904;27;45377;-74
2021/10/15 04:43:13;;;;;;;;;1.25;1.25;;;;;11.51;61.74;101532.06;5103843;27;45428;-75
2021/10/15 04:45:41;;;;;;;;;0.75;0.75;;;;;11.29;62.15;101508.22;5103865;27;47086;-77
2021/10/15 04:48:10;;;;;;;;;1.50;1.50;;;;;11.44;61.73;101532.78;5103855;27;45346;-74
2021/10/15 04:50:38;;;;;;;;;1.25;1.25;;;;;10.63;62.10;101402.81;5103362;27;45398;-78
2021/10/15 04:53:05;;;;;;;;;2.00;1.75;;;;;11.42;62.50;101531.91;5099243;27;45489;-78
2021/10/15 04:55:31;;;;;;;;;0.50;0.50;;;;;11.10;62.71;101475.72;5098606;27;47004;-76
2021/10/15 04:58:02;;;;;;;;;2.00;2.00;;;;;11.30;62.44;101496.06;5103395;27;45227;-76
2021/10/15 05:00:29;;;;;;;;;2.75;2.75;;;;;11.26;62.40;101492.53;5103297;27;45511;-77
2021/10/15 05:02:57;;;;;;;;;1.75;1.75;;;;;11.42;62.68;101531.91;5103583;27;45516;-78
2021/10/15 05:05:25;;;;;;;;;2.50;0.75;;;;;11.24;62.91;101489.03;5103752;27;45645;-76
2021/10/15 05:07:50;;;;;;;;;1.00;1.00;;;;;11.50;62.91;101535.53;5104274;27;45662;-77
2021/10/15 05:10:16;;;;;;;;;1.50;1.50;;;;;11.45;63.26;101524.16;5104434;27;45580;-77
2021/10/15 05:12:42;;;;;;;;;1.75;1.75;;;;;11.62;63.14;101542.69;5099321;27;45635;-76
2021/10/15 05:15:11;;;;;;;;;2.00;2.00;;;;;11.62;62.70;101546.19;5084289;28;45466;-77
2021/10/15 05:17:38;;;;;;;;;1.00;1.00;;;;;11.28;62.70;101496.91;5103593;27;45211;-76
2021/10/15 05:20:09;;;;;;;;;3.50;2.50;;;;;11.33;63.09;101511.78;5102967;27;45308;-76
2021/10/15 05:22:35;;;;;;;;;4.25;3.00;;;;;11.49;62.92;101536.38;5102907;27;45393;-83
2021/10/15 05:25:01;;;;;;;;;0.75;0.75;;;;;11.42;63.27;101506.69;5102462;27;47528;-76
2021/10/15 05:27:28;;;;;;;;;4.00;2.00;;;;;11.61;63.35;101538.31;5102052;27;45255;-76
2021/10/15 05:29:54;;;;;;;;;2.25;1.50;;;;;11.07;63.52;101442.69;5102859;27;45255;-76
2021/10/15 05:32:20;;;;;;;;;1.75;1.50;;;;;11.47;63.56;101510.28;5102459;27;45616;-76
2021/10/15 05:34:49;;;;;;;;;1.00;1.00;;;;;11.52;63.69;101528.63;5103216;27;46466;-76
2021/10/15 05:37:15;;;;;;;;;2.75;2.75;;;;;11.60;63.55;101540.03;5101802;27;45453;-76
2021/10/15 05:39:42;;;;;;;;;2.25;2.25;;;;;11.56;63.48;101537.34;5101872;27;45374;-76
2021/10/15 05:42:07;;;;;;;;;4.50;3.75;;;;;11.31;63.51;101487.41;5102327;27;45191;-77
2021/10/15 05:44:36;;;;;;;;;0.75;0.75;;;;;11.18;63.72;101463.72;5101348;27;46016;-77
2021/10/15 05:47:07;;;;;;;;;1.50;1.50;;;;;10.82;63.39;101397.97;5101657;27;45374;-77
2021/10/15 05:49:35;;;;;;;;;0.75;0.75;;;;;11.57;63.69;101521.72;5096441;27;45277;-76
2021/10/15 05:52:10;;;;;;;;;3.50;1.25;;;;;11.41;63.02;101497.13;5082655;27;45431;-76
2021/10/15 05:59:56;;;;;;;;;1.25;1.00;;;;;11.73;63.33;101537.66;5083208;27;45318;-75
2021/10/15 06:02:21;;;;;;;;;1.75;1.00;;;;;11.73;63.66;101540.28;5079495;28;45447;-75
2021/10/15 06:05:59;;;;;;;;;3.25;3.25;;;;;11.44;63.14;101496.28;5080530;27;46286;-76
2021/10/15 06:15:50;;;;;;;;;2.75;2.75;;;;;11.57;63.01;101534.78;5081967;28;46045;-73
2021/10/15 06:18:24;;;;;;;;;1.50;1.00;;;;;11.56;63.81;101545.19;5082400;27;45322;-77
2021/10/15 06:20:51;;;;;;;;;3.00;3.00;;;;;11.54;62.73;101552.97;5080795;28;45525;-77
2021/10/15 06:23:17;;;;;;;;;4.50;3.75;;;;;11.41;63.39;101544.06;5081196;27;45370;-76
2021/10/15 06:25:43;;;;;;;;;1.75;1.75;;;;;11.52;63.86;101565.13;5082765;28;46334;-75
2021/10/15 06:28:24;;;;;;;;;;;;;;;;;;;;;
2021/10/15 06:30:50;;;;;;;;;4.75;1.50;;;;;11.23;64.02;101521.13;5081680;28;66942;-74
2021/10/15 06:33:15;;;;;;;;;1.75;1.75;;;;;11.32;64.08;101529.13;5083219;28;45491;-75
2021/10/15 06:35:41;;;;;;;;;3.00;3.00;;;;;11.46;64.20;101545.03;5083071;28;45211;-75
2021/10/15 06:38:07;;;;;;;;;0.50;0.50;;;;;11.54;64.14;101552.97;5081423;28;46237;-75
2021/10/15 06:40:37;;;;;;;;;0.50;0.50;;;;;11.54;64.33;101542.53;5082902;27;45341;-75
2021/10/15 06:43:03;;;;;;;;;4.00;3.00;;;;;11.57;64.06;101539.09;5081591;28;45334;-75
2021/10/15 06:45:28;;;;;;;;;1.75;1.00;;;;;11.60;63.60;101540.03;5082885;27;46648;-76
2021/10/15 06:47:53;;;;;;;;;3.25;3.25;;;;;11.61;63.98;101547.00;5083113;27;45282;-76
2021/10/15 06:50:19;;;;;;;;;1.75;1.75;;;;;11.64;63.73;101549.66;5081621;27;45361;-75
2021/10/15 06:52:47;;;;;;;;;3.50;3.50;;;;;11.67;64.16;101543.63;5083777;28;45325;-75
2021/10/15 06:55:14;;;;;;;;;1.50;0.75;;;;;11.74;63.63;101545.50;5093638;28;45545;-76
2021/10/15 06:57:40;;;;;;;;;3.75;3.25;;;;;11.87;63.50;101559.63;5097921;28;44600;-77
2021/10/15 07:00:06;;;;;;;;;7.25;4.00;;;;;11.84;63.61;101546.53;5096105;28;44741;-75
2021/10/15 07:02:31;;;;;;;;;2.50;2.50;;;;;11.79;63.26;101537.75;5092668;28;45580;-74
2021/10/15 07:04:56;;;;;;;;;2.75;1.75;;;;;11.58;63.50;101501.75;5084016;28;45997;-74
2021/10/15 07:07:22;;;;;;;;;2.00;2.00;;;;;11.79;63.04;101540.34;5079799;28;45488;-76
2021/10/15 07:10:16;;;;;;;;;3.50;2.50;;;;;11.89;63.29;101567.47;5075233;27;45446;-76
2021/10/15 07:13:07;;;;;;;;;3.00;2.25;;;;;11.51;63.34;101495.53;5081382;28;45433;-77
2021/10/15 07:15:32;;;;;;;;;3.00;3.00;;;;;11.92;63.25;101572.75;5081490;28;45366;-77
2021/10/15 07:17:58;;;;;;;;;5.25;4.50;;;;;11.79;63.21;101558.59;5079667;28;45373;-80
2021/10/15 07:20:27;;;;;;;;;4.75;2.00;;;;;11.81;63.08;101575.19;5081275;27;45434;-77
2021/10/15 07:22:54;;;;;;;;;2.50;2.50;;;;;11.76;63.02;101580.31;5073765;27;45759;-78
2021/10/15 07:25:19;;;;;;;;;3.50;1.75;;;;;11.85;63.32;101590.03;5069245;28;47317;-80
2021/10/15 07:27:45;;;;;;;;;1.75;1.75;;;;;11.90;63.14;101583.16;5082119;28;45371;-79
2021/10/15 07:30:10;;;;;;;;;0.75;0.75;;;;;11.78;63.59;101554.25;5094767;27;45702;-84
2021/10/15 07:32:36;;;;;;;;;1.50;1.50;;;;;11.84;63.43;101566.50;5068395;28;45394;-77
2021/10/15 07:35:03;;;;;;;;;2.00;2.00;;;;;11.97;63.01;101596.31;5074899;28;46384;-77
2021/10/15 07:37:28;;;;;;;;;4.50;4.25;;;;;11.94;63.08;101599.72;5078983;28;45223;-79
2021/10/15 07:39:54;;;;;;;;;1.00;0.50;;;;;11.82;63.16;101561.28;5078603;27;45363;-75
2021/10/15 07:42:20;;;;;;;;;2.25;1.75;;;;;11.98;62.86;101579.81;5075726;28;45361;-77
2021/10/15 07:44:45;;;;;;;;;5.25;2.25;;;;;12.06;63.00;101590.38;5076306;28;47683;-76
2021/10/15 07:47:11;;;;;;;;;1.75;1.75;;;;;12.16;62.69;101593.16;5076616;28;45502;-76
2021/10/15 07:49:38;;;;;;;;;3.00;2.50;;;;;12.11;62.54;101573.97;5076647;27;45446;-77
2021/10/15 07:52:04;;;;;;;;;3.50;3.50;;;;;12.26;62.12;101577.66;5072167;28;45420;-75
2021/10/15 07:54:30;;;;;;;;;3.25;2.25;;;;;12.24;62.55;101569.81;5076946;28;46067;-76
2021/10/15 07:56:55;;;;;;;;;1.50;1.50;;;;;12.48;61.79;101586.69;5076137;27;45666;-76
2021/10/15 07:59:21;;;;;;;;;3.00;3.00;;;;;12.63;61.63;101588.63;5072289;28;45395;-76
2021/10/15 08:01:46;;;;;;;;;3.00;2.00;;;;;12.77;62.13;101606.25;5077968;27;45458;-77
2021/10/15 08:04:13;;;;;;;;;1.75;1.75;;;;;12.62;61.54;101567.72;5075236;27;46467;-75
2021/10/15 08:06:39;;;;;;;;;1.00;1.00;;;;;12.62;61.52;101555.50;5062295;28;45302;-75
2021/10/15 08:09:04;;;;;;;;;2.25;1.75;;;;;12.89;61.47;101577.63;5065583;28;45470;-75
2021/10/15 08:11:29;;;;;;;;;2.75;2.75;;;;;12.95;60.87;101575.97;5078077;28;45474;-75
2021/10/15 08:13:55;;;;;;;;;2.25;2.25;;;;;12.96;60.99;101567.28;5073676;27;47585;-78
2021/10/15 08:16:21;;;;;;;;;3.00;2.25;;;;;13.07;60.99;101578.72;5065401;28;45450;-76
2021/10/15 08:18:47;;;;;;;;;0.75;0.75;;;;;13.09;60.86;101587.47;5073215;27;45382;-74
2021/10/15 08:21:13;;;;;;;;;3.00;3.00;;;;;12.93;60.57;101557.66;5073191;28;45495;-75
2021/10/15 08:23:39;;;;;;;;;5.00;2.00;;;;;13.12;60.33;101591.84;5075513;27;46590;-75
2021/10/15 08:26:05;;;;;;;;;7.75;2.25;;;;;12.96;60.76;101562.03;5070940;28;45600;-75
2021/10/15 08:28:33;;;;;;;;;4.25;4.25;;;;;13.07;60.46;101575.25;5072729;27;45425;-75
2021/10/15 08:30:59;;;;;;;;;1.25;1.00;;;;;13.00;60.56;101569.06;5075965;27;45415;-75
2021/10/15 08:33:24;;;;;;;;;3.75;2.00;;;;;13.03;60.40;101564.75;5074129;28;47360;-76
2021/10/15 08:35:50;;;;;;;;;2.50;1.75;;;;;13.04;60.34;101570.84;5080652;28;45886;-76
2021/10/15 08:38:15;;;;;;;;;1.00;1.00;;;;;13.10;60.42;101583.09;5079490;28;45733;-75
2021/10/15 08:40:41;;;;;;;;;5.00;1.25;;;;;13.09;60.87;101573.50;5075822;28;45282;-78
2021/10/15 08:43:06;;;;;;;;;3.25;2.75;;;;;13.22;60.49;101587.59;5078148;28;46253;-76
2021/10/15 08:45:34;;;;;;;;;2.00;2.00;;;;;13.25;60.42;101585.00;5078490;27;45552;-76
2021/10/15 08:48:01;;;;;;;;;1.00;1.00;;;;;13.40;60.33;101592.16;5079753;27;45335;-76
2021/10/15 08:50:26;;;;;;;;;4.00;4.00;;;;;13.44;60.11;101591.31;5099889;27;45385;-76
2021/10/15 08:52:52;;;;;;;;;2.00;2.00;;;;;13.54;59.76;101602.81;5090696;27;46203;-76
2021/10/15 08:55:18;;;;;;;;;1.25;1.25;;;;;13.56;59.68;101603.69;5104899;27;45841;-76
2021/10/15 08:57:52;;;;;;;;;2.00;2.00;;;;;13.25;59.83;101537.94;5102700;27;45435;-75
2021/10/15 09:00:25;;;;;;;;;2.00;1.75;;;;;13.67;59.41;101603.78;5102224;27;45680;-75
2021/10/15 09:03:20;;;;;;;;;2.25;2.00;;;;;13.60;59.49;101613.31;5103593;27;46987;-75
2021/10/15 09:05:56;;;;;;;;;5.00;4.75;;;;;13.47;59.52;101611.41;5112039;27;45428;-75
2021/10/15 09:08:23;;;;;;;;;2.00;2.00;;;;;13.31;59.59;101600.78;5102341;27;45474;-75
2021/10/15 09:10:48;;;;;;;;;2.50;2.00;;;;;13.34;59.45;101600.81;5100129;27;45509;-75
2021/10/15 09:13:20;;;;;;;;;3.00;2.00;;;;;13.46;59.41;101591.34;5098343;27;46449;-75
2021/10/15 09:15:47;;;;;;;;;2.50;2.00;;;;;13.56;59.08;101601.06;5115278;27;45813;-75
2021/10/15 09:18:16;;;;;;;;;2.00;2.00;;;;;13.48;58.96;101584.41;5120844;27;45217;-75
2021/10/15 09:20:43;;;;;;;;;2.75;2.75;;;;;13.67;58.89;101606.41;5103409;27;45610;-77
2021/10/15 09:23:10;;;;;;;;;2.25;2.25;;;;;13.70;58.85;101595.09;5101380;27;48509;-76
2021/10/15 09:25:40;;;;;;;;;3.00;2.50;;;;;13.72;58.59;101602.09;5105557;27;46259;-76
2021/10/15 09:28:21;;;;;;;;;2.00;2.00;;;;;13.79;58.92;101609.13;5100877;27;45434;-76
2021/10/15 09:30:49;;;;;;;;;3.50;3.50;;;;;13.89;58.71;101603.97;5095019;27;45473;-76
2021/10/15 09:33:18;;;;;;;;;2.25;2.25;;;;;14.08;58.32;101636.44;5098099;27;47844;-76
2021/10/15 09:35:43;;;;;;;;;1.50;1.00;;;;;14.23;58.29;101647.88;5108569;27;45520;-76
2021/10/15 09:38:10;;;;;;;;;4.00;4.00;;;;;14.37;57.85;101648.00;5098001;27;45530;-75
2021/10/15 09:40:37;;;;;;;;;2.75;2.00;;;;;14.23;57.18;101590.28;5100684;27;45495;-77
2021/10/15 09:43:06;;;;;;;;;4.75;2.00;;;;;14.49;57.45;101637.59;5098705;27;48178;-76
2021/10/15 09:45:39;;;;;;;;;1.00;1.00;;;;;14.53;56.91;101635.88;5111288;27;46351;-76
2021/10/15 09:48:21;;;;;;;;;4.25;2.25;;;;;14.66;57.02;101632.47;5100796;27;45555;-76
2021/10/15 09:50:49;;;;;;;;;2.50;2.00;;;;;14.83;56.51;101631.75;5120925;27;45601;-75
2021/10/15 09:53:14;;;;;;;;;1.25;1.25;;;;;14.65;56.15;101574.81;5095739;27;48484;-75
2021/10/15 09:55:42;;;;;;;;;2.25;1.00;;;;;15.18;55.85;101625.78;5119309;27;45436;-75
2021/10/15 09:58:10;;;;;;;;;1.00;1.00;;;;;15.27;55.74;101611.81;5111251;27;45731;-76
2021/10/15 10:00:36;;;;;;;;;2.50;2.00;;;;;15.35;55.35;101610.94;5099642;27;45497;-77
2021/10/15 10:03:08;;;;;;;;;4.50;4.50;;;;;15.24;55.34;101574.19;5098263;27;46231;-84
2021/10/15 10:05:34;;;;;;;;;1.00;1.00;;;;;15.64;55.06;101633.75;5089424;27;45589;-79
2021/10/15 10:08:03;;;;;;;;;3.00;1.25;;;;;15.43;54.62;101610.09;5098775;27;45460;-78
2021/10/15 10:10:31;;;;;;;;;1.25;1.25;;;;;14.99;54.56;101542.66;5084009;27;45309;-80
2021/10/15 10:12:58;;;;;;;;;1.00;1.00;;;;;15.58;54.31;101639.84;5112680;27;45512;-76
2021/10/15 10:15:32;;;;;;;;;1.75;1.50;;;;;15.51;54.54;101628.50;5118621;27;45484;-84
2021/10/15 10:18:04;;;;;;;;;8.50;2.50;;;;;15.60;54.68;101640.75;5103827;27;45587;-76
2021/10/15 10:20:32;;;;;;;;;1.00;1.00;;;;;15.45;55.01;101629.34;5113653;27;45272;-77
2021/10/15 10:23:27;;;;;;;;;1.50;1.00;;;;;15.52;54.52;101647.72;5090034;27;46865;-78
2021/10/15 10:26:01;;;;;;;;;1.00;1.00;;;;;14.97;54.78;101568.88;5101411;27;45318;-77
2021/10/15 10:28:27;;;;;;;;;1.00;1.00;;;;;15.33;55.17;101629.31;5088738;27;45468;-77
2021/10/15 10:30:57;;;;;;;;;1.00;1.00;;;;;15.22;54.75;101617.91;5095120;27;45317;-76
2021/10/15 10:33:24;;;;;;;;;2.00;2.00;;;;;15.37;55.27;101630.22;5093327;27;47545;-76
2021/10/15 10:35:51;;;;;;;;;3.50;2.00;;;;;15.19;55.31;101584.66;5111853;27;45238;-78
2021/10/15 10:38:19;;;;;;;;;3.75;3.25;;;;;15.22;55.55;101594.31;5083886;27;45397;-78
2021/10/15 10:41:00;;;;;;;;;3.75;2.00;;;;;15.31;55.86;101602.19;5083986;27;45366;-78
2021/10/15 10:43:45;;;;;;;;;2.50;1.00;;;;;15.67;55.62;101642.50;5102487;27;46556;-77
2021/10/15 10:46:13;;;;;;;;;1.00;1.00;;;;;15.70;55.33;101616.28;5101980;27;45776;-76
2021/10/15 10:48:50;;;;;;;;;6.00;2.00;;;;;15.98;55.07;101646.09;5096599;27;45305;-77
2021/10/15 10:51:26;;;;;;;;;2.25;2.25;;;;;16.19;54.98;101638.22;5103211;27;45724;-76
2021/10/15 10:54:01;;;;;;;;;1.00;1.00;;;;;16.43;54.55;101640.81;5099391;27;48342;-77
2021/10/15 10:56:40;;;;;;;;;2.00;1.50;;;;;16.58;54.49;101640.78;5088850;27;45721;-77
2021/10/15 10:59:18;;;;;;;;;2.00;2.00;;;;;16.79;53.62;101641.63;5082537;27;45488;-77
2021/10/15 11:01:47;;;;;;;;;2.50;2.50;;;;;16.90;53.42;101627.53;5091315;27;45516;-77
2021/10/15 11:04:38;;;;;;;;;1.00;1.00;;;;;17.02;53.08;101632.75;5093329;27;45423;-77
2021/10/15 11:07:06;;;;;;;;;0.00;0.00;;;;;17.17;52.91;101634.47;5103235;27;45554;-77
2021/10/15 11:09:34;;;;;;;;;1.50;1.25;;;;;17.05;52.85;101608.19;5088373;27;45360;-77
2021/10/15 11:12:00;;;;;;;;;2.00;2.00;;;;;17.15;52.93;101622.22;5090097;27;45604;-77
2021/10/15 11:15:01;;;;;;;;;2.75;2.75;;;;;17.14;53.15;101634.50;5082870;27;45466;-77
2021/10/15 11:17:30;;;;;;;;;2.50;1.00;;;;;16.74;52.82;101567.13;5090847;27;45360;-77
2021/10/15 11:20:20;;;;;;;;;0.50;0.50;;;;;16.64;53.08;101552.28;5093738;27;45496;-77
2021/10/15 11:22:48;;;;;;;;;2.00;1.25;;;;;17.03;53.39;101629.22;5093345;27;45398;-76
2021/10/15 11:25:14;;;;;;;;;3.00;1.25;;;;;16.72;53.42;101577.66;5121469;27;45651;-79
2021/10/15 11:27:40;;;;;;;;;1.50;1.00;;;;;16.89;53.07;101621.41;5116464;27;45502;-77
2021/10/15 11:30:11;;;;;;;;;4.00;1.00;;;;;16.83;53.87;101624.06;5104169;27;46445;-78
2021/10/15 11:32:48;;;;;;;;;1.00;1.00;;;;;16.82;53.52;101619.69;5083135;27;45417;-78
2021/10/15 11:35:20;;;;;;;;;1.00;0.00;;;;;16.85;54.03;101625.78;5096456;27;46332;-75
2021/10/15 11:37:53;;;;;;;;;1.00;1.00;;;;;16.66;53.94;101590.81;5086855;27;45396;-77
2021/10/15 11:40:24;;;;;;;;;1.00;1.00;;;;;16.59;53.69;101583.81;5121210;27;45461;-76
2021/10/15 11:42:51;;;;;;;;;2.00;2.00;;;;;16.71;53.93;101610.09;5103380;27;45472;-78
2021/10/15 11:45:47;;;;;;;;;1.00;1.00;;;;;16.76;53.76;101619.72;5082229;27;46320;-77
2021/10/15 11:48:18;;;;;;;;;1.00;1.00;;;;;16.74;53.85;101616.19;5085467;27;45495;-77
2021/10/15 11:50:50;;;;;;;;;0.25;0.25;;;;;16.84;54.23;101613.53;5101943;27;45244;-77
2021/10/15 11:53:28;;;;;;;;;0.00;0.00;;;;;16.78;53.97;101603.03;5102796;27;45571;-75